sensor_id;sensor_type;location;lat;lon;timestamp;temperature;humidity
32977;DHT22;47687;50.842;4.450;2022-12-18T00:01:35;-3.80;99.90
32977;DHT22;47687;50.842;4.450;2022-12-18T00:04:10;-3.30;99.90
32977;DHT22;47687;50.842;4.450;2022-12-18T00:06:38;-3.90;99.90
32977;DHT22;47687;50.842;4.450;2022-12-18T00:09:09;-3.90;99.90
32977;DHT22;47687;50.842;4.450;2022-12-18T00:11:35;-4.00;99.90
32977;DHT22;47687;50.842;4.450;2022-12-18T00:14:06;-4.00;99.90
32977;DHT22;47687;50.842;4.450;2022-12-18T00:16:39;-4.00;99.90
32977;DHT22;47687;50.842;4.450;2022-12-18T00:19:17;-3.90;99.90
32977;DHT22;47687;50.842;4.450;2022-12-18T00:21:48;-3.90;99.90
32977;DHT22;47687;50.842;4.450;2022-12-18T00:24:16;-4.00;99.90
32977;DHT22;47687;50.842;4.450;2022-12-18T00:26:42;-4.10;99.90
32977;DHT22;47687;50.842;4.450;2022-12-18T00:29:21;-4.10;99.90
32977;DHT22;47687;50.842;4.450;2022-12-18T00:32:06;-4.10;99.90
32977;DHT22;47687;50.842;4.450;2022-12-18T00:34:32;-3.20;99.90
32977;DHT22;47687;50.842;4.450;2022-12-18T00:36:57;-2.90;99.90
32977;DHT22;47687;50.842;4.450;2022-12-18T00:39:25;-4.10;99.90
32977;DHT22;47687;50.842;4.450;2022-12-18T00:41:50;-4.20;99.90
32977;DHT22;47687;50.842;4.450;2022-12-18T00:44:34;-3.70;99.90
32977;DHT22;47687;50.842;4.450;2022-12-18T00:47:00;-4.20;99.90
32977;DHT22;47687;50.842;4.450;2022-12-18T00:49:29;-4.20;99.90
32977;DHT22;47687;50.842;4.450;2022-12-18T00:51:56;-4.20;99.90
32977;DHT22;47687;50.842;4.450;2022-12-18T00:54:22;-3.40;99.90
32977;DHT22;47687;50.842;4.450;2022-12-18T00:56:48;-4.20;99.90
32977;DHT22;47687;50.842;4.450;2022-12-18T00:59:18;-4.20;99.90
32977;DHT22;47687;50.842;4.450;2022-12-18T01:01:43;-4.10;99.90
32977;DHT22;47687;50.842;4.450;2022-12-18T01:04:14;-4.10;99.90
32977;DHT22;47687;50.842;4.450;2022-12-18T01:06:40;-4.00;99.90
32977;DHT22;47687;50.842;4.450;2022-12-18T01:09:06;-4.00;99.90
32977;DHT22;47687;50.842;4.450;2022-12-18T01:11:41;-4.00;99.90
32977;DHT22;47687;50.842;4.450;2022-12-18T01:14:06;-3.90;99.90
32977;DHT22;47687;50.842;4.450;2022-12-18T01:16:32;-3.90;99.90
32977;DHT22;47687;50.842;4.450;2022-12-18T01:18:57;-4.00;99.90
32977;DHT22;47687;50.842;4.450;2022-12-18T01:21:24;-4.00;99.90
32977;DHT22;47687;50.842;4.450;2022-12-18T01:23:54;-4.10;99.90
32977;DHT22;47687;50.842;4.450;2022-12-18T01:26:24;-3.50;99.90
32977;DHT22;47687;50.842;4.450;2022-12-18T01:28:51;-4.20;99.90
32977;DHT22;47687;50.842;4.450;2022-12-18T01:31:26;-4.20;99.90
32977;DHT22;47687;50.842;4.450;2022-12-18T01:33:52;-4.10;99.90
32977;DHT22;47687;50.842;4.450;2022-12-18T01:36:23;-4.10;99.90
32977;DHT22;47687;50.842;4.450;2022-12-18T01:38:50;-2.90;99.90
32977;DHT22;47687;50.842;4.450;2022-12-18T01:41:19;-4.10;99.90
32977;DHT22;47687;50.842;4.450;2022-12-18T01:43:54;-4.10;99.90
32977;DHT22;47687;50.842;4.450;2022-12-18T01:46:22;-4.00;99.90
32977;DHT22;47687;50.842;4.450;2022-12-18T01:48:49;-3.80;99.90
32977;DHT22;47687;50.842;4.450;2022-12-18T01:51:15;-4.10;99.90
32977;DHT22;47687;50.842;4.450;2022-12-18T01:53:42;-4.20;99.90
32977;DHT22;47687;50.842;4.450;2022-12-18T01:56:13;-4.20;99.90
32977;DHT22;47687;50.842;4.450;2022-12-18T01:59:02;-4.20;99.90
32977;DHT22;47687;50.842;4.450;2022-12-18T02:01:30;-4.30;99.90
32977;DHT22;47687;50.842;4.450;2022-12-18T02:04:22;-4.30;99.90
32977;DHT22;47687;50.842;4.450;2022-12-18T02:07:00;-4.40;99.90
32977;DHT22;47687;50.842;4.450;2022-12-18T02:09:48;-4.40;99.90
32977;DHT22;47687;50.842;4.450;2022-12-18T02:12:24;-4.30;99.90
32977;DHT22;47687;50.842;4.450;2022-12-18T02:15:00;-4.30;99.90
32977;DHT22;47687;50.842;4.450;2022-12-18T02:17:37;-4.30;99.90
32977;DHT22;47687;50.842;4.450;2022-12-18T02:20:24;-4.30;99.90
32977;DHT22;47687;50.842;4.450;2022-12-18T02:26:05;-4.40;99.90
32977;DHT22;47687;50.842;4.450;2022-12-18T02:28:36;-4.50;99.90
32977;DHT22;47687;50.842;4.450;2022-12-18T02:31:07;-4.50;99.90
32977;DHT22;47687;50.842;4.450;2022-12-18T02:33:35;-4.50;99.90
32977;DHT22;47687;50.842;4.450;2022-12-18T02:36:03;-4.60;99.90
32977;DHT22;47687;50.842;4.450;2022-12-18T02:38:31;-4.70;99.90
32977;DHT22;47687;50.842;4.450;2022-12-18T02:40:59;-4.70;99.90
32977;DHT22;47687;50.842;4.450;2022-12-18T02:43:24;-4.80;99.90
32977;DHT22;47687;50.842;4.450;2022-12-18T02:45:54;-4.80;99.90
32977;DHT22;47687;50.842;4.450;2022-12-18T02:48:35;-4.80;99.90
32977;DHT22;47687;50.842;4.450;2022-12-18T02:51:11;-4.90;99.90
32977;DHT22;47687;50.842;4.450;2022-12-18T02:53:56;-4.90;99.90
32977;DHT22;47687;50.842;4.450;2022-12-18T02:56:35;-4.90;99.90
32977;DHT22;47687;50.842;4.450;2022-12-18T02:59:13;-4.90;99.90
32977;DHT22;47687;50.842;4.450;2022-12-18T03:04:46;-4.90;99.90
32977;DHT22;47687;50.842;4.450;2022-12-18T03:07:27;-5.00;99.90
32977;DHT22;47687;50.842;4.450;2022-12-18T03:09:54;-4.90;99.90
32977;DHT22;47687;50.842;4.450;2022-12-18T03:12:32;-4.90;99.90
32977;DHT22;47687;50.842;4.450;2022-12-18T03:15:24;-4.90;99.90
32977;DHT22;47687;50.842;4.450;2022-12-18T03:18:01;-4.90;99.90
32977;DHT22;47687;50.842;4.450;2022-12-18T03:20:32;-4.80;99.90
32977;DHT22;47687;50.842;4.450;2022-12-18T03:23:04;-4.90;99.90
32977;DHT22;47687;50.842;4.450;2022-12-18T03:25:32;-4.90;99.90
32977;DHT22;47687;50.842;4.450;2022-12-18T03:28:00;-4.90;99.90
32977;DHT22;47687;50.842;4.450;2022-12-18T03:30:32;-4.80;99.90
32977;DHT22;47687;50.842;4.450;2022-12-18T03:35:57;-5.00;99.90
32977;DHT22;47687;50.842;4.450;2022-12-18T03:38:24;-5.00;99.90
32977;DHT22;47687;50.842;4.450;2022-12-18T03:41:15;-5.00;99.90
32977;DHT22;47687;50.842;4.450;2022-12-18T03:43:52;-5.00;99.90
32977;DHT22;47687;50.842;4.450;2022-12-18T03:49:06;-5.10;99.90
32977;DHT22;47687;50.842;4.450;2022-12-18T03:51:46;-5.10;99.90
32977;DHT22;47687;50.842;4.450;2022-12-18T03:54:15;-5.00;99.90
32977;DHT22;47687;50.842;4.450;2022-12-18T03:56:47;-5.10;99.90
32977;DHT22;47687;50.842;4.450;2022-12-18T03:59:15;-5.00;99.90
32977;DHT22;47687;50.842;4.450;2022-12-18T04:01:49;-5.00;99.90
32977;DHT22;47687;50.842;4.450;2022-12-18T04:04:18;-5.10;99.90
32977;DHT22;47687;50.842;4.450;2022-12-18T04:06:45;-5.10;99.90
32977;DHT22;47687;50.842;4.450;2022-12-18T04:09:12;-3.40;99.90
32977;DHT22;47687;50.842;4.450;2022-12-18T04:11:38;-5.10;99.90
32977;DHT22;47687;50.842;4.450;2022-12-18T04:14:04;-5.10;99.90
32977;DHT22;47687;50.842;4.450;2022-12-18T04:16:31;-5.20;99.90
32977;DHT22;47687;50.842;4.450;2022-12-18T04:18:57;-5.20;99.90
32977;DHT22;47687;50.842;4.450;2022-12-18T04:21:23;-5.20;99.90
32977;DHT22;47687;50.842;4.450;2022-12-18T04:23:49;-5.10;99.90
32977;DHT22;47687;50.842;4.450;2022-12-18T04:26:14;-5.10;99.90
32977;DHT22;47687;50.842;4.450;2022-12-18T04:28:40;-5.20;99.90
32977;DHT22;47687;50.842;4.450;2022-12-18T04:31:06;-5.10;99.90
32977;DHT22;47687;50.842;4.450;2022-12-18T04:33:31;-5.10;99.90
32977;DHT22;47687;50.842;4.450;2022-12-18T04:35:57;-5.20;99.90
32977;DHT22;47687;50.842;4.450;2022-12-18T04:38:23;-6.10;99.90
32977;DHT22;47687;50.842;4.450;2022-12-18T04:40:49;-5.20;99.90
32977;DHT22;47687;50.842;4.450;2022-12-18T04:43:14;-5.20;99.90
32977;DHT22;47687;50.842;4.450;2022-12-18T04:45:40;-5.20;99.90
32977;DHT22;47687;50.842;4.450;2022-12-18T04:48:06;-5.20;99.90
32977;DHT22;47687;50.842;4.450;2022-12-18T04:50:32;-5.20;99.90
32977;DHT22;47687;50.842;4.450;2022-12-18T04:52:57;-5.20;99.90
32977;DHT22;47687;50.842;4.450;2022-12-18T04:55:23;-5.20;99.90
32977;DHT22;47687;50.842;4.450;2022-12-18T04:57:49;-3.70;99.90
32977;DHT22;47687;50.842;4.450;2022-12-18T05:00:14;-5.20;99.90
32977;DHT22;47687;50.842;4.450;2022-12-18T05:02:40;-5.20;99.90
32977;DHT22;47687;50.842;4.450;2022-12-18T05:05:06;-5.20;99.90
32977;DHT22;47687;50.842;4.450;2022-12-18T05:07:32;-5.10;99.90
32977;DHT22;47687;50.842;4.450;2022-12-18T05:09:58;-5.20;99.90
32977;DHT22;47687;50.842;4.450;2022-12-18T05:12:23;-5.20;99.90
32977;DHT22;47687;50.842;4.450;2022-12-18T05:14:49;-5.20;99.90
32977;DHT22;47687;50.842;4.450;2022-12-18T05:17:15;-5.30;99.90
32977;DHT22;47687;50.842;4.450;2022-12-18T05:19:40;-5.30;99.90
32977;DHT22;47687;50.842;4.450;2022-12-18T05:22:07;-5.30;99.90
32977;DHT22;47687;50.842;4.450;2022-12-18T05:24:33;-5.30;99.90
32977;DHT22;47687;50.842;4.450;2022-12-18T05:26:59;-5.40;99.90
32977;DHT22;47687;50.842;4.450;2022-12-18T05:29:25;-5.40;99.90
32977;DHT22;47687;50.842;4.450;2022-12-18T05:31:50;-5.30;99.90
32977;DHT22;47687;50.842;4.450;2022-12-18T05:34:18;-5.20;99.90
32977;DHT22;47687;50.842;4.450;2022-12-18T05:36:46;-5.10;99.90
32977;DHT22;47687;50.842;4.450;2022-12-18T05:39:13;-5.10;99.90
32977;DHT22;47687;50.842;4.450;2022-12-18T05:41:39;-5.10;99.90
32977;DHT22;47687;50.842;4.450;2022-12-18T05:44:04;-5.20;99.90
32977;DHT22;47687;50.842;4.450;2022-12-18T05:46:30;-5.20;99.90
32977;DHT22;47687;50.842;4.450;2022-12-18T05:48:59;-5.20;99.90
32977;DHT22;47687;50.842;4.450;2022-12-18T05:51:26;-5.10;99.90
32977;DHT22;47687;50.842;4.450;2022-12-18T05:53:52;-5.00;99.90
32977;DHT22;47687;50.842;4.450;2022-12-18T05:56:20;-5.10;99.90
32977;DHT22;47687;50.842;4.450;2022-12-18T05:58:47;-5.10;99.90
32977;DHT22;47687;50.842;4.450;2022-12-18T06:01:17;-5.20;99.90
32977;DHT22;47687;50.842;4.450;2022-12-18T06:03:43;-5.10;99.90
32977;DHT22;47687;50.842;4.450;2022-12-18T06:06:17;-5.10;99.90
32977;DHT22;47687;50.842;4.450;2022-12-18T06:08:44;-5.20;99.90
32977;DHT22;47687;50.842;4.450;2022-12-18T06:11:10;-5.00;99.90
32977;DHT22;47687;50.842;4.450;2022-12-18T06:13:36;-5.00;99.90
32977;DHT22;47687;50.842;4.450;2022-12-18T06:16:05;-4.90;99.90
32977;DHT22;47687;50.842;4.450;2022-12-18T06:18:32;-5.00;99.90
32977;DHT22;47687;50.842;4.450;2022-12-18T06:20:59;-5.00;99.90
32977;DHT22;47687;50.842;4.450;2022-12-18T06:23:25;-5.00;99.90
32977;DHT22;47687;50.842;4.450;2022-12-18T06:25:51;-5.00;99.90
32977;DHT22;47687;50.842;4.450;2022-12-18T06:28:17;-5.00;99.90
32977;DHT22;47687;50.842;4.450;2022-12-18T06:30:46;-5.00;99.90
32977;DHT22;47687;50.842;4.450;2022-12-18T06:33:13;-5.00;99.90
32977;DHT22;47687;50.842;4.450;2022-12-18T06:35:39;-5.00;99.90
32977;DHT22;47687;50.842;4.450;2022-12-18T06:38:05;-5.00;99.90
32977;DHT22;47687;50.842;4.450;2022-12-18T06:40:31;-5.00;99.90
32977;DHT22;47687;50.842;4.450;2022-12-18T06:42:57;-5.00;99.90
32977;DHT22;47687;50.842;4.450;2022-12-18T06:45:23;-5.00;99.90
32977;DHT22;47687;50.842;4.450;2022-12-18T06:47:50;-4.90;99.90
32977;DHT22;47687;50.842;4.450;2022-12-18T06:50:16;-4.90;99.90
32977;DHT22;47687;50.842;4.450;2022-12-18T06:52:41;-4.90;99.90
32977;DHT22;47687;50.842;4.450;2022-12-18T06:55:09;-4.90;99.90
32977;DHT22;47687;50.842;4.450;2022-12-18T06:57:37;-4.90;99.90
32977;DHT22;47687;50.842;4.450;2022-12-18T07:00:05;-4.80;99.90
32977;DHT22;47687;50.842;4.450;2022-12-18T07:02:31;-4.90;99.90
32977;DHT22;47687;50.842;4.450;2022-12-18T07:04:58;-4.90;99.90
32977;DHT22;47687;50.842;4.450;2022-12-18T07:07:24;-4.80;99.90
32977;DHT22;47687;50.842;4.450;2022-12-18T07:09:50;-2.90;99.90
32977;DHT22;47687;50.842;4.450;2022-12-18T07:12:16;-4.90;99.90
32977;DHT22;47687;50.842;4.450;2022-12-18T07:14:41;-4.80;99.90
32977;DHT22;47687;50.842;4.450;2022-12-18T07:17:07;-2.90;99.90
32977;DHT22;47687;50.842;4.450;2022-12-18T07:19:33;-4.70;99.90
32977;DHT22;47687;50.842;4.450;2022-12-18T07:21:59;-4.70;99.90
32977;DHT22;47687;50.842;4.450;2022-12-18T07:24:24;-4.80;99.90
32977;DHT22;47687;50.842;4.450;2022-12-18T07:26:50;-4.70;99.90
32977;DHT22;47687;50.842;4.450;2022-12-18T07:29:15;-4.70;99.90
32977;DHT22;47687;50.842;4.450;2022-12-18T07:31:41;-3.00;99.90
32977;DHT22;47687;50.842;4.450;2022-12-18T07:34:11;-4.60;99.90
32977;DHT22;47687;50.842;4.450;2022-12-18T07:36:37;-4.70;99.90
32977;DHT22;47687;50.842;4.450;2022-12-18T07:39:02;-5.00;99.90
32977;DHT22;47687;50.842;4.450;2022-12-18T07:41:28;-4.80;99.90
32977;DHT22;47687;50.842;4.450;2022-12-18T07:43:54;-4.70;99.90
32977;DHT22;47687;50.842;4.450;2022-12-18T07:46:19;-4.80;99.90
32977;DHT22;47687;50.842;4.450;2022-12-18T07:48:45;-4.80;99.90
32977;DHT22;47687;50.842;4.450;2022-12-18T07:51:13;-4.70;99.90
32977;DHT22;47687;50.842;4.450;2022-12-18T07:53:38;-4.80;99.90
32977;DHT22;47687;50.842;4.450;2022-12-18T07:56:07;-4.80;99.90
32977;DHT22;47687;50.842;4.450;2022-12-18T07:58:33;-4.80;99.90
32977;DHT22;47687;50.842;4.450;2022-12-18T08:01:04;-4.70;99.90
32977;DHT22;47687;50.842;4.450;2022-12-18T08:03:30;-4.60;99.90
32977;DHT22;47687;50.842;4.450;2022-12-18T08:06:05;-4.70;99.90
32977;DHT22;47687;50.842;4.450;2022-12-18T08:08:32;-4.70;99.90
32977;DHT22;47687;50.842;4.450;2022-12-18T08:10:58;-4.60;99.90
32977;DHT22;47687;50.842;4.450;2022-12-18T08:13:24;-4.60;99.90
32977;DHT22;47687;50.842;4.450;2022-12-18T08:16:04;-4.60;99.90
32977;DHT22;47687;50.842;4.450;2022-12-18T08:18:32;-4.50;99.90
32977;DHT22;47687;50.842;4.450;2022-12-18T08:21:10;-4.40;99.90
32977;DHT22;47687;50.842;4.450;2022-12-18T08:23:37;-4.30;99.90
32977;DHT22;47687;50.842;4.450;2022-12-18T08:26:02;-4.10;99.90
32977;DHT22;47687;50.842;4.450;2022-12-18T08:28:28;-3.90;99.90
32977;DHT22;47687;50.842;4.450;2022-12-18T08:30:54;-3.30;99.90
32977;DHT22;47687;50.842;4.450;2022-12-18T08:33:19;-3.80;99.90
32977;DHT22;47687;50.842;4.450;2022-12-18T08:35:45;-3.70;99.90
32977;DHT22;47687;50.842;4.450;2022-12-18T08:38:10;-3.70;99.90
32977;DHT22;47687;50.842;4.450;2022-12-18T08:40:36;-3.60;99.90
32977;DHT22;47687;50.842;4.450;2022-12-18T08:43:01;-3.50;99.90
32977;DHT22;47687;50.842;4.450;2022-12-18T08:45:45;-3.40;99.90
32977;DHT22;47687;50.842;4.450;2022-12-18T08:48:11;-3.20;99.90
32977;DHT22;47687;50.842;4.450;2022-12-18T08:50:37;-3.10;99.90
32977;DHT22;47687;50.842;4.450;2022-12-18T08:53:02;-3.00;99.90
32977;DHT22;47687;50.842;4.450;2022-12-18T08:55:28;-3.00;99.90
32977;DHT22;47687;50.842;4.450;2022-12-18T08:57:54;-3.00;99.90
32977;DHT22;47687;50.842;4.450;2022-12-18T09:00:19;-2.70;99.90
32977;DHT22;47687;50.842;4.450;2022-12-18T09:02:47;-2.60;99.90
32977;DHT22;47687;50.842;4.450;2022-12-18T09:05:13;-2.50;99.90
32977;DHT22;47687;50.842;4.450;2022-12-18T09:07:38;-2.40;99.90
32977;DHT22;47687;50.842;4.450;2022-12-18T09:10:05;-2.30;99.90
32977;DHT22;47687;50.842;4.450;2022-12-18T09:12:32;-2.20;99.90
32977;DHT22;47687;50.842;4.450;2022-12-18T09:14:57;-2.10;99.90
32977;DHT22;47687;50.842;4.450;2022-12-18T09:17:23;-2.10;99.90
32977;DHT22;47687;50.842;4.450;2022-12-18T09:19:48;-2.00;99.90
32977;DHT22;47687;50.842;4.450;2022-12-18T09:22:14;-1.70;99.90
32977;DHT22;47687;50.842;4.450;2022-12-18T09:24:40;-0.90;99.90
32977;DHT22;47687;50.842;4.450;2022-12-18T09:27:06;-1.60;99.90
32977;DHT22;47687;50.842;4.450;2022-12-18T09:29:32;-1.40;99.90
32977;DHT22;47687;50.842;4.450;2022-12-18T09:31:58;-1.40;99.90
32977;DHT22;47687;50.842;4.450;2022-12-18T09:34:25;-1.00;99.90
32977;DHT22;47687;50.842;4.450;2022-12-18T09:36:50;-1.20;99.90
32977;DHT22;47687;50.842;4.450;2022-12-18T09:39:16;-1.20;99.90
32977;DHT22;47687;50.842;4.450;2022-12-18T09:41:52;-1.30;99.90
32977;DHT22;47687;50.842;4.450;2022-12-18T09:44:35;-1.10;99.90
32977;DHT22;47687;50.842;4.450;2022-12-18T09:47:10;-0.90;99.90
32977;DHT22;47687;50.842;4.450;2022-12-18T09:49:47;-0.70;99.90
32977;DHT22;47687;50.842;4.450;2022-12-18T09:52:45;-0.60;99.90
32977;DHT22;47687;50.842;4.450;2022-12-18T09:55:32;-0.40;99.90
32977;DHT22;47687;50.842;4.450;2022-12-18T09:58:24;-0.20;99.90
32977;DHT22;47687;50.842;4.450;2022-12-18T10:00:52;-0.20;99.90
32977;DHT22;47687;50.842;4.450;2022-12-18T10:03:18;0.40;99.90
32977;DHT22;47687;50.842;4.450;2022-12-18T10:06:13;0.00;99.90
32977;DHT22;47687;50.842;4.450;2022-12-18T10:12:10;-0.10;99.90
32977;DHT22;47687;50.842;4.450;2022-12-18T10:15:01;0.00;99.90
32977;DHT22;47687;50.842;4.450;2022-12-18T10:20:26;0.00;99.90
32977;DHT22;47687;50.842;4.450;2022-12-18T10:28:13;0.10;99.90
32977;DHT22;47687;50.842;4.450;2022-12-18T10:30:41;0.20;99.90
32977;DHT22;47687;50.842;4.450;2022-12-18T10:33:12;0.40;99.90
32977;DHT22;47687;50.842;4.450;2022-12-18T10:35:40;0.40;99.90
32977;DHT22;47687;50.842;4.450;2022-12-18T10:38:27;0.60;99.90
32977;DHT22;47687;50.842;4.450;2022-12-18T10:41:22;-0.30;99.90
32977;DHT22;47687;50.842;4.450;2022-12-18T10:44:12;0.70;99.90
32977;DHT22;47687;50.842;4.450;2022-12-18T10:47:23;0.70;99.90
32977;DHT22;47687;50.842;4.450;2022-12-18T10:50:39;0.80;99.90
32977;DHT22;47687;50.842;4.450;2022-12-18T10:53:22;0.70;99.90
32977;DHT22;47687;50.842;4.450;2022-12-18T10:55:49;0.60;99.90
32977;DHT22;47687;50.842;4.450;2022-12-18T10:58:24;1.60;99.90
32977;DHT22;47687;50.842;4.450;2022-12-18T11:01:17;1.00;99.90
32977;DHT22;47687;50.842;4.450;2022-12-18T11:04:01;1.20;99.90
32977;DHT22;47687;50.842;4.450;2022-12-18T11:06:29;2.60;99.90
32977;DHT22;47687;50.842;4.450;2022-12-18T11:09:06;1.70;99.90
32977;DHT22;47687;50.842;4.450;2022-12-18T11:11:49;2.00;99.90
32977;DHT22;47687;50.842;4.450;2022-12-18T11:14:51;2.50;99.90
32977;DHT22;47687;50.842;4.450;2022-12-18T11:17:37;1.60;99.90
32977;DHT22;47687;50.842;4.450;2022-12-18T11:23:04;1.90;99.90
32977;DHT22;47687;50.842;4.450;2022-12-18T11:25:31;2.70;99.90
32977;DHT22;47687;50.842;4.450;2022-12-18T11:30:47;1.90;99.90
32977;DHT22;47687;50.842;4.450;2022-12-18T11:33:19;1.90;99.90
32977;DHT22;47687;50.842;4.450;2022-12-18T11:35:53;2.00;99.90
32977;DHT22;47687;50.842;4.450;2022-12-18T11:38:26;2.10;99.90
32977;DHT22;47687;50.842;4.450;2022-12-18T11:41:39;3.50;99.90
32977;DHT22;47687;50.842;4.450;2022-12-18T11:46:19;2.90;99.90
32977;DHT22;47687;50.842;4.450;2022-12-18T11:48:57;2.10;99.90
32977;DHT22;47687;50.842;4.450;2022-12-18T11:51:33;2.00;99.90
32977;DHT22;47687;50.842;4.450;2022-12-18T11:54:13;1.90;99.90
32977;DHT22;47687;50.842;4.450;2022-12-18T12:10:38;3.50;99.90
32977;DHT22;47687;50.842;4.450;2022-12-18T12:18:51;2.60;99.90
32977;DHT22;47687;50.842;4.450;2022-12-18T12:21:41;2.70;99.90
32977;DHT22;47687;50.842;4.450;2022-12-18T12:27:00;2.80;99.90
32977;DHT22;47687;50.842;4.450;2022-12-18T12:38:02;2.70;99.90
32977;DHT22;47687;50.842;4.450;2022-12-18T12:40:32;2.60;99.90
32977;DHT22;47687;50.842;4.450;2022-12-18T12:43:22;2.50;99.90
32977;DHT22;47687;50.842;4.450;2022-12-18T12:46:02;2.60;99.90
32977;DHT22;47687;50.842;4.450;2022-12-18T12:48:46;2.70;99.90
32977;DHT22;47687;50.842;4.450;2022-12-18T12:51:37;2.70;99.90
32977;DHT22;47687;50.842;4.450;2022-12-18T12:54:23;2.70;99.90
32977;DHT22;47687;50.842;4.450;2022-12-18T13:05:06;2.80;99.90
32977;DHT22;47687;50.842;4.450;2022-12-18T13:07:51;3.00;99.90
32977;DHT22;47687;50.842;4.450;2022-12-18T13:12:54;3.00;99.90
32977;DHT22;47687;50.842;4.450;2022-12-18T13:18:13;3.10;99.90
32977;DHT22;47687;50.842;4.450;2022-12-18T13:23:26;3.30;99.90
32977;DHT22;47687;50.842;4.450;2022-12-18T13:28:50;3.20;99.90
32977;DHT22;47687;50.842;4.450;2022-12-18T13:34:16;3.20;99.90
32977;DHT22;47687;50.842;4.450;2022-12-18T13:36:43;3.30;99.90
32977;DHT22;47687;50.842;4.450;2022-12-18T13:39:22;3.30;99.90
32977;DHT22;47687;50.842;4.450;2022-12-18T13:44:58;3.10;99.90
32977;DHT22;47687;50.842;4.450;2022-12-18T13:47:35;2.80;99.90
32977;DHT22;47687;50.842;4.450;2022-12-18T13:50:30;2.80;99.90
32977;DHT22;47687;50.842;4.450;2022-12-18T13:52:55;2.90;99.90
32977;DHT22;47687;50.842;4.450;2022-12-18T13:55:22;2.90;99.90
32977;DHT22;47687;50.842;4.450;2022-12-18T13:57:48;3.00;99.90
32977;DHT22;47687;50.842;4.450;2022-12-18T14:00:28;2.80;99.90
32977;DHT22;47687;50.842;4.450;2022-12-18T14:02:56;2.90;99.90
32977;DHT22;47687;50.842;4.450;2022-12-18T14:05:29;3.00;99.90
32977;DHT22;47687;50.842;4.450;2022-12-18T14:08:01;2.90;99.90
32977;DHT22;47687;50.842;4.450;2022-12-18T14:10:28;2.80;99.90
32977;DHT22;47687;50.842;4.450;2022-12-18T14:12:53;2.60;99.90
32977;DHT22;47687;50.842;4.450;2022-12-18T14:15:38;2.60;99.90
32977;DHT22;47687;50.842;4.450;2022-12-18T14:18:26;2.50;99.90
32977;DHT22;47687;50.842;4.450;2022-12-18T14:20:56;2.50;99.90
32977;DHT22;47687;50.842;4.450;2022-12-18T14:25:56;2.60;99.90
32977;DHT22;47687;50.842;4.450;2022-12-18T14:28:23;2.70;99.90
32977;DHT22;47687;50.842;4.450;2022-12-18T14:31:21;3.60;99.90
32977;DHT22;47687;50.842;4.450;2022-12-18T14:33:47;2.70;99.90
32977;DHT22;47687;50.842;4.450;2022-12-18T14:36:19;2.70;99.90
32977;DHT22;47687;50.842;4.450;2022-12-18T14:38:56;3.00;99.90
32977;DHT22;47687;50.842;4.450;2022-12-18T14:41:33;2.70;99.90
32977;DHT22;47687;50.842;4.450;2022-12-18T14:44:13;2.60;99.90
32977;DHT22;47687;50.842;4.450;2022-12-18T14:46:41;2.70;99.90
32977;DHT22;47687;50.842;4.450;2022-12-18T14:49:27;2.70;99.90
32977;DHT22;47687;50.842;4.450;2022-12-18T14:52:00;2.70;99.90
32977;DHT22;47687;50.842;4.450;2022-12-18T14:54:46;2.60;99.90
32977;DHT22;47687;50.842;4.450;2022-12-18T14:57:35;2.60;99.90
32977;DHT22;47687;50.842;4.450;2022-12-18T15:00:14;2.50;99.90
32977;DHT22;47687;50.842;4.450;2022-12-18T15:02:40;2.50;99.90
32977;DHT22;47687;50.842;4.450;2022-12-18T15:05:37;2.40;99.90
32977;DHT22;47687;50.842;4.450;2022-12-18T15:08:24;2.40;99.90
32977;DHT22;47687;50.842;4.450;2022-12-18T15:10:52;2.30;99.90
32977;DHT22;47687;50.842;4.450;2022-12-18T15:13:23;2.30;99.90
32977;DHT22;47687;50.842;4.450;2022-12-18T15:16:00;2.20;99.90
32977;DHT22;47687;50.842;4.450;2022-12-18T15:18:32;2.20;99.90
32977;DHT22;47687;50.842;4.450;2022-12-18T15:21:16;2.20;99.90
32977;DHT22;47687;50.842;4.450;2022-12-18T15:23:52;2.30;99.90
32977;DHT22;47687;50.842;4.450;2022-12-18T15:26:20;2.20;99.90
32977;DHT22;47687;50.842;4.450;2022-12-18T15:28:52;2.60;99.90
32977;DHT22;47687;50.842;4.450;2022-12-18T15:31:24;2.00;99.90
32977;DHT22;47687;50.842;4.450;2022-12-18T15:36:20;1.90;99.90
32977;DHT22;47687;50.842;4.450;2022-12-18T15:38:50;2.50;99.90
32977;DHT22;47687;50.842;4.450;2022-12-18T15:41:17;1.80;99.90
32977;DHT22;47687;50.842;4.450;2022-12-18T15:43:46;1.90;99.90
32977;DHT22;47687;50.842;4.450;2022-12-18T15:46:31;1.90;99.90
32977;DHT22;47687;50.842;4.450;2022-12-18T15:49:00;1.90;99.90
32977;DHT22;47687;50.842;4.450;2022-12-18T15:51:33;2.00;99.90
32977;DHT22;47687;50.842;4.450;2022-12-18T15:54:11;2.20;99.90
32977;DHT22;47687;50.842;4.450;2022-12-18T15:56:39;2.00;99.90
32977;DHT22;47687;50.842;4.450;2022-12-18T15:59:29;2.10;99.90
32977;DHT22;47687;50.842;4.450;2022-12-18T16:01:58;2.10;99.90
32977;DHT22;47687;50.842;4.450;2022-12-18T16:04:24;2.10;99.90
32977;DHT22;47687;50.842;4.450;2022-12-18T16:06:51;2.10;99.90
32977;DHT22;47687;50.842;4.450;2022-12-18T16:09:20;2.30;99.90
32977;DHT22;47687;50.842;4.450;2022-12-18T16:11:46;2.30;99.90
32977;DHT22;47687;50.842;4.450;2022-12-18T16:14:25;2.20;99.90
32977;DHT22;47687;50.842;4.450;2022-12-18T16:17:08;2.30;99.90
32977;DHT22;47687;50.842;4.450;2022-12-18T16:19:42;2.30;99.90
32977;DHT22;47687;50.842;4.450;2022-12-18T16:22:47;2.30;99.90
32977;DHT22;47687;50.842;4.450;2022-12-18T16:25:29;2.30;99.90
32977;DHT22;47687;50.842;4.450;2022-12-18T16:28:10;2.20;99.90
32977;DHT22;47687;50.842;4.450;2022-12-18T16:30:35;2.20;99.90
32977;DHT22;47687;50.842;4.450;2022-12-18T16:33:21;2.30;99.90
32977;DHT22;47687;50.842;4.450;2022-12-18T16:36:10;2.40;99.90
32977;DHT22;47687;50.842;4.450;2022-12-18T16:38:40;2.40;99.90
32977;DHT22;47687;50.842;4.450;2022-12-18T16:41:18;2.50;99.90
32977;DHT22;47687;50.842;4.450;2022-12-18T16:44:05;2.50;99.90
32977;DHT22;47687;50.842;4.450;2022-12-18T16:46:39;2.40;99.90
32977;DHT22;47687;50.842;4.450;2022-12-18T16:49:27;2.40;99.90
32977;DHT22;47687;50.842;4.450;2022-12-18T16:51:54;2.50;99.90
32977;DHT22;47687;50.842;4.450;2022-12-18T16:54:20;3.40;99.90
32977;DHT22;47687;50.842;4.450;2022-12-18T16:56:49;2.60;99.90
32977;DHT22;47687;50.842;4.450;2022-12-18T16:59:17;2.60;99.90
32977;DHT22;47687;50.842;4.450;2022-12-18T17:01:50;2.50;99.90
32977;DHT22;47687;50.842;4.450;2022-12-18T17:04:25;2.50;99.90
32977;DHT22;47687;50.842;4.450;2022-12-18T17:07:13;2.50;99.90
32977;DHT22;47687;50.842;4.450;2022-12-18T17:09:47;2.50;99.90
32977;DHT22;47687;50.842;4.450;2022-12-18T17:12:18;2.50;99.90
32977;DHT22;47687;50.842;4.450;2022-12-18T17:14:43;2.50;99.90
32977;DHT22;47687;50.842;4.450;2022-12-18T17:17:10;2.60;99.90
32977;DHT22;47687;50.842;4.450;2022-12-18T17:19:36;2.60;99.90
32977;DHT22;47687;50.842;4.450;2022-12-18T17:22:02;2.50;99.90
32977;DHT22;47687;50.842;4.450;2022-12-18T17:24:28;2.50;99.90
32977;DHT22;47687;50.842;4.450;2022-12-18T17:26:54;2.60;99.90
32977;DHT22;47687;50.842;4.450;2022-12-18T17:29:20;2.60;99.90
32977;DHT22;47687;50.842;4.450;2022-12-18T17:31:46;2.60;99.90
32977;DHT22;47687;50.842;4.450;2022-12-18T17:34:12;2.70;99.90
32977;DHT22;47687;50.842;4.450;2022-12-18T17:36:38;2.80;99.90
32977;DHT22;47687;50.842;4.450;2022-12-18T17:39:05;2.70;99.90